createdAt,value
2019-02-16T00:04:17.289Z,32.03
2019-02-16T00:09:22.316Z,28.07
2019-02-16T00:14:27.392Z,33.70
2019-02-16T00:19:32.532Z,49.00
2019-02-16T00:24:37.551Z,41.60
2019-02-16T00:29:43.760Z,39.90
2019-02-16T00:34:48.846Z,35.47
2019-02-16T00:39:54.116Z,31.40
2019-02-16T00:44:59.471Z,29.67
2019-02-16T00:50:04.590Z,31.13
2019-02-16T00:55:09.738Z,31.17
2019-02-16T01:00:19.193Z,34.10
2019-02-16T01:05:24.266Z,27.97
2019-02-16T01:10:29.448Z,32.17
2019-02-16T01:15:34.527Z,32.73
2019-02-16T01:20:39.655Z,32.23
2019-02-16T01:25:44.751Z,35.50
2019-02-16T01:30:50.222Z,32.37
2019-02-16T01:35:55.883Z,31.87
2019-02-16T01:41:01.123Z,31.63
2019-02-16T01:46:06.248Z,32.67
2019-02-16T01:51:11.329Z,31.73
2019-02-16T01:56:16.341Z,32.53
2019-02-16T02:01:21.883Z,33.43
2019-02-16T02:06:26.967Z,32.00
2019-02-16T02:11:32.092Z,29.47
2019-02-16T02:16:37.268Z,34.27
2019-02-16T02:21:42.325Z,32.00
2019-02-16T02:26:47.295Z,31.23
2019-02-16T02:31:52.384Z,35.13
2019-02-16T02:36:57.581Z,39.40
2019-02-16T02:42:02.690Z,40.93
2019-02-16T02:47:07.846Z,37.43
2019-02-16T02:52:12.906Z,36.23
2019-02-16T02:57:18.014Z,34.37
2019-02-16T03:02:23.056Z,35.67
2019-02-16T03:07:28.165Z,33.50
2019-02-16T03:12:33.677Z,40.27
2019-02-16T03:17:38.833Z,35.53
2019-02-16T03:23:30.251Z,34.27
2019-02-16T03:28:52.011Z,32.63
2019-02-16T03:34:05.285Z,34.67
2019-02-16T03:39:19.743Z,32.50
2019-02-16T03:44:25.047Z,34.13
2019-02-16T03:49:30.141Z,36.20
2019-02-16T03:54:35.096Z,29.63
2019-02-16T03:59:40.073Z,29.67
2019-02-16T04:04:46.228Z,30.97
2019-02-16T04:09:51.606Z,33.40
2019-02-16T04:14:57.175Z,39.80
2019-02-16T04:20:05.958Z,33.80
2019-02-16T04:25:11.622Z,39.30
2019-02-16T04:30:19.404Z,34.40
2019-02-16T04:35:28.152Z,36.40
2019-02-16T04:40:33.710Z,40.87
2019-02-16T04:45:39.252Z,38.80
2019-02-16T04:50:47.442Z,34.90
2019-02-16T04:55:55.939Z,36.40
2019-02-16T05:01:01.113Z,41.63
2019-02-16T05:06:07.125Z,33.37
2019-02-16T05:11:12.189Z,31.67
2019-02-16T05:16:20.263Z,37.70
2019-02-16T05:21:28.856Z,37.00
2019-02-16T05:26:37.468Z,38.43
2019-02-16T05:31:52.469Z,37.60
2019-02-16T05:37:01.208Z,33.77
2019-02-16T05:42:11.745Z,36.53
2019-02-16T05:47:19.063Z,36.60
2019-02-16T05:52:25.137Z,38.37
2019-02-16T05:57:34.705Z,36.37
2019-02-16T06:02:40.275Z,43.23
2019-02-16T06:07:45.557Z,41.63
2019-02-16T06:12:53.812Z,33.77
2019-02-16T06:17:59.826Z,38.87
2019-02-16T06:23:05.034Z,38.53
2019-02-16T06:28:10.689Z,36.60
2019-02-16T06:33:16.095Z,38.47
2019-02-16T06:38:21.302Z,36.83
2019-02-16T06:43:26.932Z,33.83
2019-02-16T06:48:33.955Z,38.70
2019-02-16T06:53:42.276Z,37.00
2019-02-16T06:58:47.861Z,35.77
2019-02-16T07:03:53.452Z,32.37
2019-02-16T07:09:07.984Z,32.80
2019-02-16T07:14:13.184Z,29.30
2019-02-16T07:19:24.127Z,34.47
2019-02-16T07:24:29.525Z,34.10
2019-02-16T07:29:34.637Z,31.00
2019-02-16T07:34:39.725Z,32.70
2019-02-16T07:39:44.826Z,30.10
2019-02-16T07:45:07.956Z,32.10
2019-02-16T07:50:27.532Z,35.10
2019-02-16T07:55:54.464Z,35.00
2019-02-16T08:01:17.289Z,33.57
2019-02-16T08:06:34.230Z,32.40
2019-02-16T08:11:48.588Z,32.00
2019-02-16T08:17:00.042Z,40.07
2019-02-16T08:22:22.763Z,31.20
2019-02-16T08:27:39.057Z,28.53
2019-02-16T08:33:05.995Z,28.40
2019-02-16T08:38:36.295Z,24.77
2019-02-16T08:43:51.051Z,29.43
2019-02-16T08:49:19.433Z,27.30
2019-02-16T08:54:30.775Z,30.57
2019-02-16T09:00:04.263Z,26.80
2019-02-16T09:05:16.202Z,22.37
2019-02-16T09:10:49.101Z,21.13
2019-02-16T09:16:13.176Z,19.23
2019-02-16T09:21:28.641Z,22.47
2019-02-16T09:26:51.711Z,19.53
2019-02-16T09:32:18.994Z,17.30
2019-02-16T09:37:41.035Z,23.13
2019-02-16T09:43:04.293Z,19.47
2019-02-16T09:48:18.115Z,19.90
2019-02-16T09:53:41.620Z,18.50
2019-02-16T09:59:05.993Z,19.50
2019-02-16T10:04:29.087Z,20.00
2019-02-16T10:09:52.392Z,22.35
2019-02-16T10:15:15.136Z,20.10
2019-02-16T10:20:29.073Z,20.57
2019-02-16T10:25:54.995Z,18.07
2019-02-16T10:31:21.680Z,17.98
2019-02-16T10:36:44.280Z,14.80
2019-02-16T10:42:06.067Z,13.98
2019-02-16T10:47:30.167Z,16.05
2019-02-16T10:53:03.419Z,16.23
2019-02-16T10:58:29.385Z,15.68
2019-02-16T11:03:52.389Z,13.28
2019-02-16T11:09:07.948Z,12.70
2019-02-16T11:14:21.753Z,15.83
2019-02-16T11:19:42.546Z,13.20
2019-02-16T11:25:05.511Z,12.83
2019-02-16T11:30:29.601Z,12.77
2019-02-16T11:36:09.010Z,14.23
2019-02-16T11:41:22.594Z,13.95
2019-02-16T11:46:45.530Z,13.62
2019-02-16T11:51:59.718Z,13.50
2019-02-16T11:57:42.229Z,14.10
2019-02-16T12:03:19.198Z,14.38
2019-02-16T12:08:44.148Z,13.32
2019-02-16T12:14:17.908Z,18.20
2019-02-16T12:19:30.963Z,12.65
2019-02-16T12:25:05.357Z,12.03
2019-02-16T12:30:28.994Z,12.37
2019-02-16T12:35:51.231Z,12.98
2019-02-16T12:41:21.832Z,13.30
2019-02-16T12:46:36.449Z,12.17
2019-02-16T12:51:57.858Z,14.60
2019-02-16T12:57:07.866Z,19.23
2019-02-16T13:02:30.624Z,19.10
2019-02-16T13:07:49.989Z,15.45
2019-02-16T13:13:08.558Z,13.55
2019-02-16T13:18:28.423Z,15.90
2019-02-16T13:23:46.598Z,14.60
2019-02-16T13:29:10.754Z,14.75
2019-02-16T13:34:33.921Z,16.27
2019-02-16T13:39:53.043Z,14.95
2019-02-16T13:45:07.607Z,14.38
2019-02-16T13:50:30.696Z,13.40
2019-02-16T13:56:00.678Z,13.68
2019-02-16T14:01:20.904Z,12.60
2019-02-16T14:06:44.665Z,12.30
2019-02-16T14:12:03.771Z,12.80
2019-02-16T14:17:27.437Z,14.03
2019-02-16T14:22:32.483Z,16.20
2019-02-16T14:27:37.547Z,14.50
2019-02-16T14:32:42.697Z,13.38
2019-02-16T14:38:02.425Z,13.55
2019-02-16T14:43:07.442Z,14.43
2019-02-16T14:48:12.515Z,15.20
2019-02-16T14:53:17.886Z,13.03
2019-02-16T14:58:22.887Z,14.47
2019-02-16T15:03:28.009Z,18.12
2019-02-16T15:08:33.163Z,17.77
2019-02-16T15:13:40.354Z,44.93
2019-02-16T15:18:45.652Z,21.60
2019-02-16T15:23:51.457Z,13.72
2019-02-16T15:28:56.870Z,14.93
2019-02-16T15:34:02.100Z,19.70
2019-02-16T15:39:13.191Z,18.82
2019-02-16T15:44:18.401Z,17.82
2019-02-16T15:49:24.156Z,18.95
2019-02-16T15:54:29.456Z,19.20
2019-02-16T15:59:35.415Z,17.42
2019-02-16T16:04:40.584Z,18.50
2019-02-16T16:10:20.530Z,19.32
2019-02-16T16:15:47.550Z,18.40
2019-02-16T16:21:11.891Z,18.92
2019-02-16T16:26:36.090Z,18.07
2019-02-16T16:32:01.219Z,15.65
2019-02-16T16:37:23.363Z,19.05
2019-02-16T16:42:44.347Z,20.97
2019-02-16T16:48:08.961Z,20.75
2019-02-16T16:53:38.676Z,18.50
2019-02-16T16:59:05.689Z,19.30
2019-02-16T17:04:25.027Z,18.32
2019-02-16T17:10:01.281Z,23.60
2019-02-16T17:15:22.962Z,17.87
2019-02-16T17:20:58.021Z,19.77
2019-02-16T17:26:20.830Z,19.57
2019-02-16T17:31:45.142Z,19.53
2019-02-16T17:37:02.380Z,20.17
2019-02-16T17:42:19.704Z,19.17
2019-02-16T17:47:43.975Z,22.13
2019-02-16T17:53:17.563Z,26.03
2019-02-16T17:58:34.347Z,26.23
2019-02-16T18:03:48.327Z,30.77
2019-02-16T18:09:11.898Z,26.90
2019-02-16T18:14:42.371Z,26.87
2019-02-16T18:20:06.585Z,25.90
2019-02-16T18:25:35.995Z,23.73
2019-02-16T18:31:00.147Z,28.27
2019-02-16T18:36:23.057Z,32.10
2019-02-16T18:41:56.133Z,31.43
2019-02-16T18:47:19.795Z,33.97
2019-02-16T18:52:43.315Z,22.13
2019-02-16T18:58:08.334Z,23.57
2019-02-16T19:03:27.664Z,25.70
2019-02-16T19:08:57.859Z,21.80
2019-02-16T19:14:24.932Z,24.07
2019-02-16T19:19:51.981Z,25.80
2019-02-16T19:25:16.116Z,28.17
2019-02-16T19:30:40.511Z,25.77
2019-02-16T19:35:53.076Z,29.67
2019-02-16T19:41:17.152Z,30.50
2019-02-16T19:46:41.154Z,32.90
2019-02-16T19:52:23.564Z,21.90
2019-02-16T19:57:40.722Z,23.63
2019-02-16T20:02:53.644Z,26.53
2019-02-16T20:08:31.264Z,28.37
2019-02-16T20:13:52.151Z,23.17
2019-02-16T20:19:34.663Z,23.87
2019-02-16T20:24:54.213Z,21.20
2019-02-16T20:30:27.865Z,26.07
2019-02-16T20:35:45.423Z,26.93
2019-02-16T20:41:08.964Z,23.53
2019-02-16T20:46:33.211Z,20.40
2019-02-16T20:51:51.606Z,23.40
2019-02-16T20:57:03.975Z,23.47
2019-02-16T21:02:28.458Z,23.90
2019-02-16T21:07:48.256Z,26.23
2019-02-16T21:13:13.396Z,26.90
2019-02-16T21:18:37.835Z,25.70
2019-02-16T21:24:05.146Z,28.30
2019-02-16T21:29:22.552Z,26.70
2019-02-16T21:34:46.801Z,27.90
2019-02-16T21:40:20.000Z,29.70
2019-02-16T21:45:47.658Z,29.47
2019-02-16T21:51:13.015Z,25.40
2019-02-16T21:56:37.903Z,28.53
2019-02-16T22:01:52.740Z,29.77
2019-02-16T22:07:22.702Z,31.30
2019-02-16T22:12:59.086Z,44.47
2019-02-16T22:18:04.348Z,32.13
2019-02-16T22:23:10.144Z,32.40
2019-02-16T22:28:20.347Z,30.73
2019-02-16T22:33:22.108Z,35.47
2019-02-16T22:38:27.260Z,33.43
2019-02-16T22:43:32.775Z,31.37
2019-02-16T22:48:38.140Z,23.50
2019-02-16T22:53:43.648Z,26.97
2019-02-16T22:58:48.748Z,27.00
2019-02-16T23:03:53.944Z,29.63
2019-02-16T23:08:59.575Z,29.77
2019-02-16T23:14:04.847Z,29.23
2019-02-16T23:19:10.020Z,28.77
2019-02-16T23:24:15.140Z,32.17
2019-02-16T23:29:22.444Z,30.77
2019-02-16T23:34:27.720Z,27.73
2019-02-16T23:39:33.047Z,27.80
2019-02-16T23:44:38.102Z,30.13
2019-02-16T23:49:43.690Z,34.47
2019-02-16T23:54:49.256Z,31.73
2019-02-16T23:59:54.337Z,29.98
